Time,TemperatureF,DewpointF,PressureIn,WindDirection,WindDirectionDegrees,WindSpeedMPH,WindSpeedGustMPH,Humidity,HourlyPrecipIn,Conditions,Clouds,dailyrainin,SolarRadiationWatts/m^2,SoftwareType,DateUTC
2013-11-09 00:03:00,37.0,36.0,-100.00,SSE,150,1.0,8.0,96,0.02,,,0.09,0.000000,,2013-11-09 06:03:00,
2013-11-09 00:43:00,37.0,36.0,-100.00,SSW,206,1.0,5.0,98,0.03,,,0.12,0.000000,,2013-11-09 06:43:00,
2013-11-09 00:54:00,37.0,36.0,-100.00,SSW,206,1.0,5.0,98,0.03,,,0.12,0.000000,,2013-11-09 06:54:00,
2013-11-09 01:02:00,37.0,36.0,-100.00,SSW,206,1.0,5.0,98,0.03,,,0.12,0.000000,,2013-11-09 07:02:00,
2013-11-09 01:42:00,38.0,38.0,-100.00,SW,216,3.0,6.0,99,0.01,,,0.13,0.000000,,2013-11-09 07:42:00,
2013-11-09 01:53:00,38.0,38.0,-100.00,SW,216,3.0,6.0,99,0.01,,,0.13,0.000000,,2013-11-09 07:53:00,
2013-11-09 02:02:00,38.0,38.0,-100.00,SW,216,3.0,6.0,99,0.01,,,0.13,0.000000,,2013-11-09 08:02:00,
2013-11-09 02:42:00,39.0,38.0,-100.00,WSW,242,5.0,11.0,97,0.00,,,0.13,0.000000,,2013-11-09 08:42:00,
2013-11-09 02:52:00,39.0,38.0,-100.00,WSW,242,5.0,11.0,97,0.00,,,0.13,0.000000,,2013-11-09 08:52:00,
2013-11-09 03:02:00,39.0,38.0,-100.00,WSW,242,5.0,11.0,97,0.00,,,0.13,0.000000,,2013-11-09 09:02:00,
2013-11-09 03:43:00,39.0,37.0,-100.00,WSW,244,7.0,13.0,94,0.00,,,0.13,0.000000,,2013-11-09 09:43:00,
2013-11-09 03:53:00,39.0,37.0,-100.00,WSW,244,7.0,13.0,94,0.00,,,0.13,0.000000,,2013-11-09 09:53:00,
2013-11-09 04:03:00,39.0,37.0,-100.00,WSW,244,7.0,13.0,94,0.00,,,0.13,0.000000,,2013-11-09 10:03:00,
2013-11-09 04:43:00,39.0,37.0,-100.00,WSW,257,5.0,14.0,93,0.00,,,0.13,0.000000,,2013-11-09 10:43:00,
2013-11-09 04:52:00,39.0,37.0,-100.00,WSW,257,5.0,14.0,93,0.00,,,0.13,0.000000,,2013-11-09 10:52:00,
2013-11-09 05:03:00,39.0,37.0,-100.00,WSW,257,5.0,14.0,93,0.00,,,0.13,0.000000,,2013-11-09 11:03:00,
2013-11-09 05:43:00,39.0,37.0,-100.00,WSW,246,5.0,11.0,94,0.00,,,0.13,0.000000,,2013-11-09 11:43:00,
2013-11-09 05:52:00,39.0,37.0,-100.00,WSW,246,5.0,11.0,94,0.00,,,0.13,0.000000,,2013-11-09 11:52:00,
2013-11-09 06:02:00,39.0,37.0,-100.00,WSW,246,5.0,11.0,94,0.00,,,0.13,0.000000,,2013-11-09 12:02:00,
2013-11-09 06:42:00,40.0,37.0,-100.00,WSW,252,6.0,14.0,88,0.00,,,0.13,0.000000,,2013-11-09 12:42:00,
2013-11-09 06:52:00,40.0,37.0,-100.00,WSW,252,6.0,14.0,88,0.00,,,0.13,0.000000,,2013-11-09 12:52:00,
2013-11-09 07:02:00,40.0,37.0,-100.00,WSW,252,6.0,14.0,88,0.00,,,0.13,0.000000,,2013-11-09 13:02:00,
2013-11-09 07:42:00,40.0,37.0,-100.00,WSW,251,6.0,15.0,89,0.00,,,0.13,0.000000,,2013-11-09 13:42:00,
2013-11-09 07:52:00,40.0,37.0,-100.00,WSW,251,6.0,15.0,89,0.00,,,0.13,0.000000,,2013-11-09 13:52:00,
2013-11-09 08:02:00,40.0,37.0,-100.00,WSW,251,6.0,15.0,89,0.00,,,0.13,0.000000,,2013-11-09 14:02:00,
2013-11-09 08:42:00,40.0,36.0,-100.00,WSW,254,7.0,16.0,84,0.00,,,0.13,6.000000,,2013-11-09 14:42:00,
2013-11-09 08:52:00,40.0,36.0,-100.00,WSW,254,7.0,16.0,84,0.00,,,0.13,6.000000,,2013-11-09 14:52:00,
2013-11-09 09:02:00,40.0,36.0,-100.00,WSW,254,7.0,16.0,84,0.00,,,0.13,6.000000,,2013-11-09 15:02:00,
2013-11-09 09:44:00,41.0,35.0,-100.00,West,268,7.0,18.0,79,0.00,,,0.13,32.000000,,2013-11-09 15:44:00,
2013-11-09 09:54:00,41.0,35.0,-100.00,West,268,7.0,18.0,79,0.00,,,0.13,32.000000,,2013-11-09 15:54:00,
2013-11-09 10:03:00,41.0,35.0,-100.00,West,268,7.0,18.0,79,0.00,,,0.13,32.000000,,2013-11-09 16:03:00,
2013-11-09 10:43:00,40.0,31.0,-100.00,WNW,288,9.0,24.0,70,0.00,,,0.13,47.000000,,2013-11-09 16:43:00,
2013-11-09 10:53:00,40.0,31.0,-100.00,WNW,288,9.0,24.0,70,0.00,,,0.13,47.000000,,2013-11-09 16:53:00,
2013-11-09 11:03:00,40.0,31.0,-100.00,WNW,288,9.0,24.0,70,0.00,,,0.13,47.000000,,2013-11-09 17:03:00,
2013-11-09 11:43:00,40.0,31.0,-100.00,West,280,7.0,18.0,70,0.00,,,0.13,54.000000,,2013-11-09 17:43:00,
2013-11-09 11:52:00,40.0,31.0,-100.00,West,280,7.0,18.0,70,0.00,,,0.13,54.000000,,2013-11-09 17:52:00,
2013-11-09 12:02:00,40.0,31.0,-100.00,West,280,7.0,18.0,70,0.00,,,0.13,54.000000,,2013-11-09 18:02:00,
2013-11-09 12:42:00,41.0,32.0,-100.00,West,264,8.0,23.0,70,0.00,,,0.13,42.000000,,2013-11-09 18:42:00,
2013-11-09 12:52:00,41.0,32.0,-100.00,West,264,8.0,23.0,70,0.00,,,0.13,42.000000,,2013-11-09 18:52:00,
2013-11-09 13:02:00,41.0,32.0,-100.00,West,264,8.0,23.0,70,0.00,,,0.13,42.000000,,2013-11-09 19:02:00,
2013-11-09 13:42:00,41.0,32.0,-100.00,West,267,5.0,17.0,69,0.00,,,0.12,40.000000,,2013-11-09 19:42:00,
2013-11-09 13:52:00,41.0,32.0,-100.00,West,267,5.0,17.0,69,0.00,,,0.12,40.000000,,2013-11-09 19:52:00,
2013-11-09 14:02:00,41.0,32.0,-100.00,West,267,5.0,17.0,69,0.00,,,0.12,40.000000,,2013-11-09 20:02:00,
2013-11-09 14:42:00,40.0,31.0,-100.00,West,261,9.0,20.0,69,0.00,,,0.12,27.000000,,2013-11-09 20:42:00,
2013-11-09 14:52:00,40.0,31.0,-100.00,West,261,9.0,20.0,69,0.00,,,0.12,27.000000,,2013-11-09 20:52:00,
2013-11-09 15:03:00,40.0,31.0,-100.00,West,261,9.0,20.0,69,0.00,,,0.12,27.000000,,2013-11-09 21:03:00,
2013-11-09 15:44:00,39.0,27.0,-100.00,West,273,7.0,22.0,61,0.00,,,0.12,19.000000,,2013-11-09 21:44:00,
2013-11-09 15:54:00,39.0,27.0,-100.00,West,273,7.0,22.0,61,0.00,,,0.12,19.000000,,2013-11-09 21:54:00,
2013-11-09 16:04:00,39.0,27.0,-100.00,West,273,7.0,22.0,61,0.00,,,0.12,19.000000,,2013-11-09 22:04:00,
2013-11-09 16:43:00,38.0,25.0,-100.00,West,276,8.0,21.0,60,0.00,,,0.12,7.000000,,2013-11-09 22:43:00,
2013-11-09 16:54:00,38.0,25.0,-100.00,West,276,8.0,21.0,60,0.00,,,0.12,7.000000,,2013-11-09 22:54:00,
2013-11-09 17:02:00,38.0,25.0,-100.00,West,276,8.0,21.0,60,0.00,,,0.12,7.000000,,2013-11-09 23:02:00,
2013-11-09 17:42:00,38.0,27.0,-100.00,West,274,7.0,19.0,63,0.00,,,0.12,1.000000,,2013-11-09 23:42:00,
2013-11-09 17:53:00,38.0,27.0,-100.00,West,274,7.0,19.0,63,0.00,,,0.12,1.000000,,2013-11-09 23:53:00,
2013-11-09 18:02:00,38.0,27.0,-100.00,West,274,7.0,19.0,63,0.00,,,0.12,1.000000,,2013-11-10 00:02:00,
2013-11-09 18:42:00,37.0,27.0,-100.00,West,276,7.0,19.0,66,0.00,,,0.12,0.000000,,2013-11-10 00:42:00,
2013-11-09 18:52:00,37.0,27.0,-100.00,West,276,7.0,19.0,66,0.00,,,0.12,0.000000,,2013-11-10 00:52:00,
2013-11-09 19:02:00,37.0,27.0,-100.00,West,276,7.0,19.0,66,0.00,,,0.12,0.000000,,2013-11-10 01:02:00,
2013-11-09 19:42:00,37.0,28.0,-100.00,West,272,7.0,15.0,69,0.00,,,0.12,0.000000,,2013-11-10 01:42:00,
2013-11-09 19:52:00,37.0,28.0,-100.00,West,272,7.0,15.0,69,0.00,,,0.12,0.000000,,2013-11-10 01:52:00,
2013-11-09 20:01:00,37.0,28.0,-100.00,West,272,7.0,15.0,69,0.00,,,0.12,0.000000,,2013-11-10 02:01:00,
2013-11-09 20:42:00,37.0,28.0,-100.00,West,273,8.0,16.0,70,0.00,,,0.12,0.000000,,2013-11-10 02:42:00,
2013-11-09 20:52:00,37.0,28.0,-100.00,West,273,8.0,16.0,70,0.00,,,0.12,0.000000,,2013-11-10 02:52:00,
2013-11-09 21:03:00,37.0,28.0,-100.00,West,273,8.0,16.0,70,0.00,,,0.12,0.000000,,2013-11-10 03:03:00,
2013-11-09 21:44:00,37.0,28.0,-100.00,West,266,8.0,18.0,71,0.00,,,0.12,0.000000,,2013-11-10 03:44:00,
2013-11-09 21:54:00,37.0,28.0,-100.00,West,266,8.0,18.0,71,0.00,,,0.12,0.000000,,2013-11-10 03:54:00,
2013-11-09 22:02:00,-999.0,-99.9,-100.00,West,266,8.0,18.0,-999,-99.99,,,-99.99,0.000000,,2013-11-10 04:02:00,
2013-11-09 22:43:00,37.0,28.0,-100.00,West,270,5.0,16.0,71,0.00,,,0.06,0.000000,,2013-11-10 04:43:00,
2013-11-09 22:52:00,37.0,28.0,-100.00,West,270,5.0,16.0,71,0.00,,,0.06,0.000000,,2013-11-10 04:52:00,
2013-11-09 23:03:00,37.0,28.0,-100.00,West,270,5.0,16.0,71,0.00,,,0.06,0.000000,,2013-11-10 05:03:00,
2013-11-09 23:43:00,38.0,30.0,-100.00,WNW,292,6.0,12.0,73,0.00,,,0.04,0.000000,,2013-11-10 05:43:00,
2013-11-09 23:54:00,38.0,30.0,-100.00,WNW,292,6.0,12.0,73,0.00,,,0.04,0.000000,,2013-11-10 05:54:00,